createdAt,value
2018-07-22T00:00:12.620Z,19.81
2018-07-22T00:02:41.489Z,19.80
2018-07-22T00:05:10.155Z,19.77
2018-07-22T00:07:38.963Z,19.81
2018-07-22T00:10:17.079Z,19.76
2018-07-22T00:12:45.794Z,19.85
2018-07-22T00:15:14.485Z,19.90
2018-07-22T00:17:43.179Z,19.88
2018-07-22T00:20:11.851Z,19.92
2018-07-22T00:22:40.536Z,20.00
2018-07-22T00:25:09.259Z,19.97
2018-07-22T00:27:37.947Z,20.06
2018-07-22T00:30:07.160Z,20.05
2018-07-22T00:32:35.952Z,19.89
2018-07-22T00:35:04.855Z,19.92
2018-07-22T00:37:33.548Z,19.97
2018-07-22T00:40:02.261Z,20.02
2018-07-22T00:42:30.968Z,20.03
2018-07-22T00:44:59.631Z,20.04
2018-07-22T00:47:28.575Z,20.06
2018-07-22T00:49:57.268Z,20.06
2018-07-22T00:52:25.999Z,20.14
2018-07-22T00:54:54.779Z,20.19
2018-07-22T00:57:23.447Z,20.14
2018-07-22T00:59:52.532Z,20.12
2018-07-22T01:02:21.267Z,20.20
2018-07-22T01:04:50.016Z,20.20
2018-07-22T01:07:18.700Z,20.19
2018-07-22T01:09:47.477Z,20.26
2018-07-22T01:12:16.192Z,20.17
2018-07-22T01:14:44.836Z,20.21
2018-07-22T01:17:13.476Z,20.29
2018-07-22T01:19:42.213Z,20.35
2018-07-22T01:22:10.888Z,20.43
2018-07-22T01:24:39.535Z,20.37
2018-07-22T01:27:08.201Z,20.45
2018-07-22T01:29:36.867Z,20.45
2018-07-22T01:32:05.491Z,20.48
2018-07-22T01:34:34.254Z,20.57
2018-07-22T01:37:02.903Z,20.58
2018-07-22T01:39:31.617Z,20.51
2018-07-22T01:42:00.388Z,20.53
2018-07-22T01:44:29.107Z,20.50
2018-07-22T01:46:57.790Z,20.50
2018-07-22T01:49:26.402Z,20.51
2018-07-22T01:51:55.135Z,20.55
2018-07-22T01:54:23.848Z,20.45
2018-07-22T01:56:52.574Z,20.39
2018-07-22T01:59:21.292Z,20.40
2018-07-22T02:01:49.923Z,20.41
2018-07-22T02:04:18.556Z,20.37
2018-07-22T02:06:47.269Z,20.26
2018-07-22T02:09:15.934Z,20.27
2018-07-22T02:11:44.598Z,20.18
2018-07-22T02:14:13.281Z,20.11
2018-07-22T02:16:42.101Z,20.06
2018-07-22T02:19:10.805Z,20.03
2018-07-22T02:21:39.464Z,20.05
2018-07-22T02:24:08.106Z,20.10
2018-07-22T02:26:36.791Z,20.02
2018-07-22T02:29:05.553Z,20.09
2018-07-22T02:31:34.272Z,20.03
2018-07-22T02:34:02.939Z,20.05
2018-07-22T02:36:31.568Z,20.18
2018-07-22T02:39:00.251Z,20.26
2018-07-22T02:41:28.954Z,20.12
2018-07-22T02:43:57.646Z,20.19
2018-07-22T02:46:26.340Z,20.11
2018-07-22T02:48:54.994Z,20.26
2018-07-22T02:51:23.878Z,20.12
2018-07-22T02:53:52.564Z,20.15
2018-07-22T02:56:21.266Z,20.07
2018-07-22T02:58:49.965Z,20.16
2018-07-22T03:01:18.655Z,20.02
2018-07-22T03:03:47.347Z,19.95
2018-07-22T03:06:16.015Z,19.92
2018-07-22T03:08:44.777Z,19.99
2018-07-22T03:11:13.467Z,19.95
2018-07-22T03:13:42.162Z,20.02
2018-07-22T03:16:10.838Z,19.95
2018-07-22T03:18:39.580Z,19.96
2018-07-22T03:21:08.248Z,19.91
2018-07-22T03:23:36.891Z,19.87
2018-07-22T03:26:05.738Z,19.90
2018-07-22T03:28:34.562Z,19.92
2018-07-22T03:31:03.227Z,19.94
2018-07-22T03:33:31.934Z,19.94
2018-07-22T03:36:00.626Z,20.01
2018-07-22T03:38:29.435Z,20.17
2018-07-22T03:40:58.116Z,20.22
2018-07-22T03:43:26.801Z,20.37
2018-07-22T03:45:55.779Z,20.49
2018-07-22T03:48:24.561Z,20.74
2018-07-22T03:50:53.251Z,20.75
2018-07-22T03:53:21.991Z,20.78
2018-07-22T03:55:50.761Z,20.84
2018-07-22T03:58:19.442Z,20.95
2018-07-22T04:00:48.167Z,20.87
2018-07-22T04:03:16.815Z,20.68
2018-07-22T04:05:45.468Z,20.47
2018-07-22T04:08:14.155Z,20.43
2018-07-22T04:10:42.787Z,20.39
2018-07-22T04:13:11.420Z,20.48
2018-07-22T04:15:40.096Z,20.50
2018-07-22T04:18:08.846Z,20.50
2018-07-22T04:20:37.615Z,20.53
2018-07-22T04:23:06.504Z,20.57
2018-07-22T04:25:35.249Z,20.57
2018-07-22T04:28:03.873Z,20.48
2018-07-22T04:30:32.535Z,20.42
2018-07-22T04:33:01.212Z,20.42
2018-07-22T04:35:29.895Z,20.39
2018-07-22T04:37:58.535Z,20.49
2018-07-22T04:40:27.223Z,20.39
2018-07-22T04:42:56.059Z,20.36
2018-07-22T04:45:24.785Z,20.27
2018-07-22T04:47:53.463Z,20.29
2018-07-22T04:50:22.153Z,20.30
2018-07-22T04:52:50.774Z,20.30
2018-07-22T04:55:19.470Z,20.39
2018-07-22T04:57:48.175Z,20.36
2018-07-22T05:00:16.854Z,20.36
2018-07-22T05:02:45.471Z,20.28
2018-07-22T05:05:14.127Z,20.27
2018-07-22T05:07:42.899Z,20.27
2018-07-22T05:10:11.624Z,20.37
2018-07-22T05:12:40.290Z,20.35
2018-07-22T05:15:08.978Z,20.40
2018-07-22T05:17:37.651Z,20.44
2018-07-22T05:20:06.330Z,20.43
2018-07-22T05:22:34.991Z,20.45
2018-07-22T05:25:03.660Z,20.43
2018-07-22T05:27:32.299Z,20.50
2018-07-22T05:30:00.975Z,20.56
2018-07-22T05:32:29.693Z,20.59
2018-07-22T05:34:58.347Z,20.66
2018-07-22T05:37:27.036Z,20.80
2018-07-22T05:39:55.672Z,20.81
2018-07-22T05:42:24.509Z,20.87
2018-07-22T05:44:53.215Z,21.14
2018-07-22T05:47:21.852Z,21.27
2018-07-22T05:49:50.525Z,21.46
2018-07-22T05:52:19.200Z,21.54
2018-07-22T05:54:47.918Z,21.60
2018-07-22T05:57:16.583Z,21.69
2018-07-22T05:59:45.237Z,21.80
2018-07-22T06:02:13.913Z,21.95
2018-07-22T06:04:42.542Z,21.74
2018-07-22T06:07:11.164Z,21.84
2018-07-22T06:09:39.852Z,21.90
2018-07-22T06:12:08.548Z,21.91
2018-07-22T06:14:37.509Z,21.97
2018-07-22T06:17:06.131Z,22.20
2018-07-22T06:19:34.805Z,22.32
2018-07-22T06:22:03.459Z,22.54
2018-07-22T06:24:32.126Z,22.56
2018-07-22T06:27:00.769Z,22.61
2018-07-22T06:29:29.573Z,22.70
2018-07-22T06:31:58.228Z,22.67
2018-07-22T06:34:26.897Z,22.79
2018-07-22T06:36:55.543Z,22.87
2018-07-22T06:39:24.202Z,22.99
2018-07-22T06:41:52.863Z,22.96
2018-07-22T06:44:21.632Z,22.75
2018-07-22T06:46:50.265Z,22.82
2018-07-22T06:49:18.943Z,22.90
2018-07-22T06:51:47.599Z,22.93
2018-07-22T06:54:16.510Z,23.13
2018-07-22T06:56:45.180Z,23.22
2018-07-22T06:59:13.914Z,23.53
2018-07-22T07:01:42.583Z,23.91
2018-07-22T07:04:11.422Z,24.08
2018-07-22T07:06:40.187Z,24.14
2018-07-22T07:09:10.245Z,24.61
2018-07-22T07:11:39.103Z,24.83
2018-07-22T07:14:08.049Z,25.18
2018-07-22T07:16:37.008Z,25.20
2018-07-22T07:19:05.764Z,25.18
2018-07-22T07:21:34.481Z,25.39
2018-07-22T07:24:03.101Z,25.20
2018-07-22T07:26:31.731Z,25.49
2018-07-22T07:29:00.404Z,25.64
2018-07-22T07:31:29.152Z,25.94
2018-07-22T07:33:57.919Z,26.01
2018-07-22T07:36:26.624Z,25.77
2018-07-22T07:38:55.309Z,25.86
2018-07-22T07:41:23.962Z,25.93
2018-07-22T07:43:52.650Z,26.09
2018-07-22T07:46:21.390Z,25.86
2018-07-22T07:48:50.419Z,25.92
2018-07-22T07:51:19.147Z,26.02
2018-07-22T07:53:47.835Z,25.87
2018-07-22T07:56:16.584Z,25.99
2018-07-22T07:58:45.309Z,26.31
2018-07-22T08:01:14.060Z,26.73
2018-07-22T08:03:42.885Z,26.46
2018-07-22T08:06:11.677Z,26.99
2018-07-22T08:08:40.372Z,26.65
2018-07-22T08:11:09.281Z,27.02
2018-07-22T08:13:38.063Z,26.96
2018-07-22T08:16:06.900Z,27.60
2018-07-22T08:18:35.611Z,27.63
2018-07-22T08:21:04.959Z,28.08
2018-07-22T08:23:33.715Z,27.84
2018-07-22T08:26:02.441Z,27.91
2018-07-22T08:28:42.500Z,27.74
2018-07-22T08:31:11.330Z,27.57
2018-07-22T08:33:40.072Z,27.73
2018-07-22T08:36:09.022Z,27.32
2018-07-22T08:38:37.772Z,27.61
2018-07-22T08:41:06.484Z,27.47
2018-07-22T08:43:35.200Z,27.10
2018-07-22T08:46:03.977Z,27.15
2018-07-22T08:48:32.920Z,27.22
2018-07-22T08:51:01.732Z,27.21
2018-07-22T08:53:30.470Z,27.08
2018-07-22T08:55:59.430Z,26.76
2018-07-22T08:58:28.100Z,26.87
2018-07-22T09:00:56.844Z,26.91
2018-07-22T09:03:25.570Z,26.81
2018-07-22T09:05:54.297Z,26.67
2018-07-22T09:08:23.022Z,26.61
2018-07-22T09:10:51.728Z,26.62
2018-07-22T09:13:20.384Z,26.63
2018-07-22T09:15:49.123Z,26.57
2018-07-22T09:18:17.849Z,26.63
2018-07-22T09:20:46.505Z,26.52
2018-07-22T09:23:15.209Z,26.67
2018-07-22T09:25:43.910Z,26.56
2018-07-22T09:28:12.622Z,26.56
2018-07-22T09:30:41.366Z,26.58
2018-07-22T09:33:11.458Z,26.55
2018-07-22T09:35:40.121Z,26.73
2018-07-22T09:38:08.868Z,26.90
2018-07-22T09:40:37.588Z,27.07
2018-07-22T09:43:06.278Z,27.22
2018-07-22T09:45:34.965Z,27.40
2018-07-22T09:48:03.621Z,27.63
2018-07-22T09:50:32.408Z,27.75
2018-07-22T09:53:01.136Z,27.69
2018-07-22T09:55:33.205Z,27.85
2018-07-22T09:58:02.131Z,28.05
2018-07-22T10:01:07.196Z,27.89
2018-07-22T10:03:35.974Z,27.57
2018-07-22T10:06:04.688Z,27.51
2018-07-22T10:08:33.481Z,27.29
2018-07-22T10:11:02.170Z,27.22
2018-07-22T10:13:30.904Z,27.19
2018-07-22T10:15:59.677Z,26.94
2018-07-22T10:18:28.423Z,26.69
2018-07-22T10:20:57.204Z,26.65
2018-07-22T10:23:26.081Z,26.81
2018-07-22T10:25:54.797Z,26.66
2018-07-22T10:28:23.594Z,26.60
2018-07-22T10:30:52.316Z,26.66
2018-07-22T10:33:21.047Z,26.56
2018-07-22T10:35:49.880Z,26.51
2018-07-22T10:38:18.488Z,26.41
2018-07-22T10:40:47.276Z,26.51
2018-07-22T10:43:16.009Z,26.51
2018-07-22T10:45:44.712Z,26.54
2018-07-22T10:48:13.385Z,26.64
2018-07-22T10:50:42.257Z,27.01
2018-07-22T10:53:11.001Z,27.26
2018-07-22T10:55:39.703Z,27.57
2018-07-22T10:58:08.446Z,27.68
2018-07-22T11:00:37.223Z,28.33
2018-07-22T11:03:07.069Z,28.67
2018-07-22T11:05:35.844Z,28.89
2018-07-22T11:08:04.523Z,29.30
2018-07-22T11:10:33.277Z,29.47
2018-07-22T11:13:01.894Z,29.50
2018-07-22T11:15:30.650Z,29.79
2018-07-22T11:17:59.488Z,29.73
2018-07-22T11:20:28.225Z,29.44
2018-07-22T11:22:56.909Z,29.49
2018-07-22T11:25:25.592Z,29.26
2018-07-22T11:27:54.257Z,29.19
2018-07-22T11:30:23.021Z,29.94
2018-07-22T11:32:51.754Z,29.90
2018-07-22T11:35:20.461Z,29.82
2018-07-22T11:37:49.180Z,29.82
2018-07-22T11:40:17.846Z,30.23
2018-07-22T11:42:46.599Z,30.27
2018-07-22T11:45:15.421Z,30.36
2018-07-22T11:47:44.089Z,30.31
2018-07-22T11:50:12.823Z,29.97
2018-07-22T11:52:41.674Z,30.01
2018-07-22T11:55:10.435Z,29.98
2018-07-22T11:57:39.126Z,29.77
2018-07-22T12:00:07.846Z,29.85
2018-07-22T12:02:36.594Z,30.19
2018-07-22T12:05:05.351Z,30.34
2018-07-22T12:07:34.093Z,30.22
2018-07-22T12:10:02.856Z,30.31
2018-07-22T12:12:31.564Z,30.28
2018-07-22T12:15:00.420Z,30.40
2018-07-22T12:17:29.305Z,30.65
2018-07-22T12:19:58.120Z,30.66
2018-07-22T12:22:26.798Z,30.35
2018-07-22T12:24:55.460Z,30.39
2018-07-22T12:27:24.447Z,30.05
2018-07-22T12:29:53.113Z,30.25
2018-07-22T12:32:22.132Z,29.75
2018-07-22T12:34:50.811Z,29.82
2018-07-22T12:37:19.490Z,29.96
2018-07-22T12:39:48.158Z,30.18
2018-07-22T12:42:16.873Z,30.32
2018-07-22T12:44:45.619Z,30.28
2018-07-22T12:47:14.267Z,30.75
2018-07-22T12:49:42.972Z,31.12
2018-07-22T12:52:11.697Z,31.00
2018-07-22T12:54:40.442Z,30.51
2018-07-22T12:57:09.180Z,29.61
2018-07-22T12:59:38.061Z,28.38
2018-07-22T13:02:06.944Z,27.95
2018-07-22T13:04:35.647Z,27.72
2018-07-22T13:07:04.411Z,27.95
2018-07-22T13:09:33.231Z,27.85
2018-07-22T13:12:01.961Z,27.74
2018-07-22T13:14:30.728Z,27.66
2018-07-22T13:16:59.419Z,27.63
2018-07-22T13:19:28.105Z,27.70
2018-07-22T13:21:56.925Z,27.84
2018-07-22T13:24:25.572Z,28.33
2018-07-22T13:26:54.323Z,28.87
2018-07-22T13:29:23.022Z,29.24
2018-07-22T13:31:51.733Z,29.74
2018-07-22T13:34:20.447Z,30.11
2018-07-22T13:36:49.144Z,30.31
2018-07-22T13:39:18.048Z,30.19
2018-07-22T13:41:47.101Z,30.34
2018-07-22T13:44:15.755Z,29.82
2018-07-22T13:46:44.888Z,30.09
2018-07-22T13:49:13.679Z,30.11
2018-07-22T13:51:42.446Z,30.20
2018-07-22T13:54:11.151Z,30.20
2018-07-22T13:56:39.844Z,29.91
2018-07-22T13:59:08.608Z,30.09
2018-07-22T14:01:37.353Z,30.37
2018-07-22T14:04:06.132Z,30.54
2018-07-22T14:06:34.869Z,30.11
2018-07-22T14:09:04.220Z,30.16
2018-07-22T14:11:32.924Z,30.23
2018-07-22T14:14:01.666Z,30.49
2018-07-22T14:16:30.365Z,30.57
2018-07-22T14:19:00.473Z,30.82
2018-07-22T14:21:29.415Z,30.39
2018-07-22T14:23:59.115Z,30.33
2018-07-22T14:26:28.083Z,30.41
2018-07-22T14:28:56.822Z,30.18
2018-07-22T14:31:25.511Z,30.22
2018-07-22T14:33:54.824Z,30.13
2018-07-22T14:36:23.724Z,29.96
2018-07-22T14:38:52.455Z,29.94
2018-07-22T14:41:21.188Z,29.59
2018-07-22T14:43:50.020Z,29.74
2018-07-22T14:46:18.850Z,29.51
2018-07-22T14:48:47.573Z,29.58
2018-07-22T14:51:16.372Z,29.51
2018-07-22T14:53:45.100Z,29.05
2018-07-22T14:56:14.517Z,28.99
2018-07-22T14:58:43.347Z,29.45
2018-07-22T15:01:13.524Z,29.29
2018-07-22T15:03:42.886Z,29.42
2018-07-22T15:06:12.020Z,29.57
2018-07-22T15:08:41.015Z,29.49
2018-07-22T15:11:09.725Z,29.33
2018-07-22T15:13:38.662Z,29.14
2018-07-22T15:16:07.959Z,29.19
2018-07-22T15:18:36.788Z,28.80
2018-07-22T15:21:05.544Z,28.78
2018-07-22T15:23:34.520Z,28.72
2018-07-22T15:26:03.700Z,28.88
2018-07-22T15:28:32.445Z,28.91
2018-07-22T15:31:01.241Z,28.94
2018-07-22T15:33:29.925Z,28.84
2018-07-22T15:35:58.604Z,28.57
2018-07-22T15:38:27.348Z,28.58
2018-07-22T15:40:56.076Z,28.44
2018-07-22T15:43:24.733Z,28.24
2018-07-22T15:45:53.467Z,28.46
2018-07-22T15:48:22.319Z,28.35
2018-07-22T15:50:51.058Z,28.25
2018-07-22T15:53:19.849Z,28.21
2018-07-22T15:55:48.650Z,28.25
2018-07-22T15:58:18.001Z,28.06
2018-07-22T16:00:47.584Z,27.85
2018-07-22T16:03:16.467Z,27.72
2018-07-22T16:05:45.244Z,27.72
2018-07-22T16:08:13.978Z,27.84
2018-07-22T16:10:42.689Z,28.15
2018-07-22T16:13:11.399Z,27.79
2018-07-22T16:15:40.202Z,27.69
2018-07-22T16:18:08.892Z,27.51
2018-07-22T16:20:37.711Z,27.44
2018-07-22T16:23:06.390Z,27.37
2018-07-22T16:25:35.101Z,27.28
2018-07-22T16:28:04.283Z,27.24
2018-07-22T16:30:33.030Z,27.13
2018-07-22T16:33:02.131Z,27.09
2018-07-22T16:35:30.969Z,27.26
2018-07-22T16:37:59.739Z,27.25
2018-07-22T16:40:28.488Z,27.34
2018-07-22T16:42:58.313Z,27.31
2018-07-22T16:45:27.123Z,27.37
2018-07-22T16:47:55.883Z,27.39
2018-07-22T16:50:24.923Z,27.47
2018-07-22T16:52:53.646Z,27.34
2018-07-22T16:55:22.452Z,27.39
2018-07-22T16:57:51.141Z,27.56
2018-07-22T17:00:19.907Z,27.45
2018-07-22T17:02:48.578Z,27.57
2018-07-22T17:05:17.298Z,27.49
2018-07-22T17:07:46.096Z,27.55
2018-07-22T17:10:14.793Z,27.65
2018-07-22T17:12:43.538Z,27.57
2018-07-22T17:15:12.336Z,27.44
2018-07-22T17:17:41.096Z,27.54
2018-07-22T17:20:09.827Z,27.41
2018-07-22T17:22:38.591Z,27.35
2018-07-22T17:25:07.483Z,27.37
2018-07-22T17:27:36.290Z,27.40
2018-07-22T17:30:05.308Z,27.42
2018-07-22T17:32:34.199Z,27.50
2018-07-22T17:35:02.967Z,27.37
2018-07-22T17:37:31.689Z,27.30
2018-07-22T17:40:01.300Z,27.28
2018-07-22T17:42:31.685Z,27.21
2018-07-22T17:45:00.494Z,27.12
2018-07-22T17:47:30.003Z,27.08
2018-07-22T17:49:58.954Z,27.17
2018-07-22T17:52:28.043Z,27.09
2018-07-22T17:54:56.737Z,27.04
2018-07-22T17:57:25.661Z,27.10
2018-07-22T17:59:54.380Z,27.09
2018-07-22T18:02:23.221Z,26.91
2018-07-22T18:04:52.090Z,26.94
2018-07-22T18:07:20.717Z,26.92
2018-07-22T18:09:49.546Z,26.87
2018-07-22T18:12:18.359Z,26.79
2018-07-22T18:14:47.096Z,26.91
2018-07-22T18:17:15.865Z,26.80
2018-07-22T18:19:44.613Z,26.87
2018-07-22T18:22:13.411Z,26.73
2018-07-22T18:24:42.123Z,26.71
2018-07-22T18:27:11.082Z,26.72
2018-07-22T18:29:39.772Z,26.56
2018-07-22T18:32:08.545Z,26.75
2018-07-22T18:34:37.340Z,26.56
2018-07-22T18:37:06.341Z,26.60
2018-07-22T18:39:35.114Z,26.58
2018-07-22T18:42:03.969Z,26.61
2018-07-22T18:44:32.853Z,26.51
2018-07-22T18:47:01.828Z,26.42
2018-07-22T18:49:30.641Z,26.30
2018-07-22T18:52:00.020Z,26.47
2018-07-22T18:54:28.731Z,26.33
2018-07-22T18:56:57.599Z,26.34
2018-07-22T18:59:26.435Z,26.39
2018-07-22T19:01:55.226Z,26.38
2018-07-22T19:04:24.089Z,26.24
2018-07-22T19:06:52.821Z,26.09
2018-07-22T19:09:21.580Z,26.01
2018-07-22T19:11:50.245Z,25.96
2018-07-22T19:14:19.053Z,25.88
2018-07-22T19:16:47.779Z,25.75
2018-07-22T19:19:16.713Z,25.72
2018-07-22T19:21:45.781Z,25.69
2018-07-22T19:24:14.570Z,25.57
2018-07-22T19:26:43.830Z,25.54
2018-07-22T19:29:12.679Z,25.46
2018-07-22T19:31:41.532Z,25.40
2018-07-22T19:34:10.296Z,25.52
2018-07-22T19:36:39.124Z,25.28
2018-07-22T19:39:08.286Z,25.30
2018-07-22T19:41:37.281Z,25.30
2018-07-22T19:44:06.304Z,25.13
2018-07-22T19:46:35.067Z,24.97
2018-07-22T19:49:04.120Z,24.77
2018-07-22T19:51:32.848Z,24.70
2018-07-22T19:54:01.676Z,24.56
2018-07-22T19:56:30.455Z,24.53
2018-07-22T19:58:59.405Z,24.48
2018-07-22T20:01:28.101Z,24.46
2018-07-22T20:03:57.011Z,24.61
2018-07-22T20:06:25.823Z,24.57
2018-07-22T20:08:54.594Z,24.53
2018-07-22T20:11:23.384Z,24.42
2018-07-22T20:13:52.148Z,24.43
2018-07-22T20:16:21.128Z,24.40
2018-07-22T20:18:49.889Z,24.38
2018-07-22T20:21:19.014Z,24.26
2018-07-22T20:23:47.828Z,24.08
2018-07-22T20:26:16.599Z,24.10
2018-07-22T20:28:45.332Z,24.10
2018-07-22T20:31:14.379Z,24.03
2018-07-22T20:33:43.322Z,23.99
2018-07-22T20:36:12.421Z,23.99
2018-07-22T20:38:41.255Z,23.96
2018-07-22T20:41:10.084Z,23.62
2018-07-22T20:43:39.842Z,23.58
2018-07-22T20:46:08.662Z,23.57
2018-07-22T20:48:37.370Z,23.52
2018-07-22T20:51:06.181Z,23.53
2018-07-22T20:53:34.843Z,23.49
2018-07-22T20:56:03.786Z,23.55
2018-07-22T20:58:32.667Z,23.46
2018-07-22T21:01:01.541Z,23.17
2018-07-22T21:03:30.347Z,23.12
2018-07-22T21:05:59.160Z,23.17
2018-07-22T21:08:28.062Z,23.22
2018-07-22T21:10:56.828Z,23.28
2018-07-22T21:13:26.910Z,23.16
2018-07-22T21:15:56.144Z,23.15
2018-07-22T21:18:25.040Z,23.10
2018-07-22T21:20:54.071Z,23.00
2018-07-22T21:23:22.910Z,23.05
2018-07-22T21:25:51.716Z,22.93
2018-07-22T21:28:20.485Z,22.96
2018-07-22T21:30:49.380Z,22.91
2018-07-22T21:33:18.170Z,22.95
2018-07-22T21:35:47.132Z,22.92
2018-07-22T21:38:15.973Z,22.88
2018-07-22T21:40:44.947Z,22.81
2018-07-22T21:43:13.640Z,22.79
2018-07-22T21:45:42.424Z,22.79
2018-07-22T21:48:11.272Z,22.76
2018-07-22T21:50:40.646Z,22.71
2018-07-22T21:53:09.359Z,22.78
2018-07-22T21:55:38.152Z,22.70
2018-07-22T21:58:07.208Z,22.57
2018-07-22T22:00:41.581Z,22.63
2018-07-22T22:03:10.527Z,22.56
2018-07-22T22:05:39.245Z,22.65
2018-07-22T22:08:08.465Z,22.68
2018-07-22T22:10:37.204Z,22.64
2018-07-22T22:13:05.954Z,22.52
2018-07-22T22:15:34.696Z,22.43
2018-07-22T22:18:04.444Z,22.41
2018-07-22T22:20:33.316Z,22.41
2018-07-22T22:23:02.204Z,22.37
2018-07-22T22:25:31.281Z,22.40
2018-07-22T22:28:00.400Z,22.41
2018-07-22T22:30:29.091Z,22.35
2018-07-22T22:32:57.852Z,22.34
2018-07-22T22:35:26.605Z,22.29
2018-07-22T22:37:55.461Z,22.22
2018-07-22T22:40:24.188Z,22.22
2018-07-22T22:42:53.088Z,22.27
2018-07-22T22:45:21.918Z,22.24
2018-07-22T22:47:50.673Z,22.23
2018-07-22T22:50:19.437Z,22.27
2018-07-22T22:52:49.206Z,22.17
2018-07-22T22:55:17.944Z,22.19
2018-07-22T22:57:57.981Z,22.09
2018-07-22T23:00:26.632Z,22.17
2018-07-22T23:02:55.319Z,22.21
2018-07-22T23:05:24.032Z,22.18
2018-07-22T23:07:52.788Z,22.24
2018-07-22T23:10:21.548Z,22.29
2018-07-22T23:12:50.373Z,22.25
2018-07-22T23:15:19.169Z,22.20
2018-07-22T23:17:47.931Z,22.03
2018-07-22T23:20:16.641Z,22.07
2018-07-22T23:22:45.381Z,21.99
2018-07-22T23:25:14.149Z,22.04
2018-07-22T23:27:42.961Z,21.95
2018-07-22T23:30:11.708Z,21.85
2018-07-22T23:32:40.574Z,21.81
2018-07-22T23:35:09.235Z,21.76
2018-07-22T23:37:37.956Z,21.74
2018-07-22T23:40:06.703Z,21.72
2018-07-22T23:42:35.449Z,21.63
2018-07-22T23:45:04.516Z,21.72
2018-07-22T23:47:33.225Z,21.62
2018-07-22T23:50:02.193Z,21.63
2018-07-22T23:52:30.867Z,21.47
2018-07-22T23:54:59.604Z,21.44
2018-07-22T23:57:28.391Z,21.46
2018-07-22T23:59:57.016Z,21.40
